createdAt,value
2022-12-08T00:00:20.559Z,10.37
2022-12-08T00:02:47.445Z,9.53
2022-12-08T00:05:32.804Z,11.33
2022-12-08T00:08:18.283Z,13.23
2022-12-08T00:10:49.633Z,12.83
2022-12-08T00:13:16.780Z,8.90
2022-12-08T00:15:43.407Z,12.50
2022-12-08T00:18:10.009Z,9.67
2022-12-08T00:20:36.792Z,11.40
2022-12-08T00:23:04.239Z,13.40
2022-12-08T00:25:31.810Z,10.77
2022-12-08T00:27:58.437Z,16.40
2022-12-08T00:30:25.024Z,12.83
2022-12-08T00:32:51.765Z,12.07
2022-12-08T00:35:18.391Z,11.33
2022-12-08T00:37:44.968Z,12.93
2022-12-08T00:40:11.891Z,13.87
2022-12-08T00:42:38.513Z,16.93
2022-12-08T00:45:05.600Z,13.77
2022-12-08T00:47:32.202Z,12.20
2022-12-08T00:49:58.783Z,15.93
2022-12-08T00:52:25.319Z,13.40
2022-12-08T00:54:51.879Z,14.03
2022-12-08T00:57:18.457Z,12.53
2022-12-08T00:59:45.028Z,13.33
2022-12-08T01:02:11.586Z,13.93
2022-12-08T01:04:38.840Z,12.97
2022-12-08T01:07:05.485Z,11.00
2022-12-08T01:09:32.609Z,14.43
2022-12-08T01:11:59.178Z,10.07
2022-12-08T01:14:26.009Z,11.07
2022-12-08T01:16:53.067Z,11.97
2022-12-08T01:19:19.758Z,7.93
2022-12-08T01:21:46.792Z,12.87
2022-12-08T01:24:18.091Z,10.10
2022-12-08T01:26:45.054Z,14.27
2022-12-08T01:29:12.062Z,11.30
2022-12-08T01:31:39.188Z,14.33
2022-12-08T01:34:06.967Z,11.57
2022-12-08T01:36:37.212Z,10.50
2022-12-08T01:39:06.840Z,11.67
2022-12-08T01:41:35.921Z,8.80
2022-12-08T01:44:10.993Z,8.67
2022-12-08T01:46:40.526Z,10.80
2022-12-08T01:49:09.012Z,12.03
2022-12-08T01:51:42.198Z,9.87
2022-12-08T01:54:09.577Z,7.90
2022-12-08T01:56:47.984Z,7.97
2022-12-08T01:59:14.767Z,9.67
2022-12-08T02:01:41.427Z,8.73
2022-12-08T02:04:09.663Z,9.77
2022-12-08T02:06:40.687Z,11.67
2022-12-08T02:09:08.156Z,10.40
2022-12-08T02:11:34.771Z,11.03
2022-12-08T02:14:03.909Z,13.00
2022-12-08T02:16:45.730Z,9.30
2022-12-08T02:19:33.785Z,9.40
2022-12-08T02:22:09.236Z,10.47
2022-12-08T02:24:43.490Z,10.57
2022-12-08T02:27:39.374Z,10.13
2022-12-08T02:30:43.450Z,10.03
2022-12-08T02:33:10.026Z,8.57
2022-12-08T02:35:44.759Z,9.80
2022-12-08T02:38:35.552Z,11.63
2022-12-08T02:41:23.830Z,9.67
2022-12-08T02:44:10.669Z,10.30
2022-12-08T02:47:10.357Z,10.33
2022-12-08T02:49:37.111Z,8.60
2022-12-08T02:52:13.088Z,8.80
2022-12-08T02:54:43.238Z,8.73
2022-12-08T02:57:31.430Z,9.37
2022-12-08T03:00:04.230Z,9.50
2022-12-08T03:03:08.537Z,10.13
2022-12-08T03:06:02.011Z,9.90
2022-12-08T03:08:59.526Z,11.10
2022-12-08T03:11:36.527Z,11.23
2022-12-08T03:14:06.917Z,13.10
2022-12-08T03:16:39.297Z,10.57
2022-12-08T03:19:13.503Z,10.83
2022-12-08T03:21:41.000Z,11.00
2022-12-08T03:24:09.259Z,10.03
2022-12-08T03:26:48.241Z,10.07
2022-12-08T03:29:15.029Z,10.73
2022-12-08T03:31:49.238Z,10.50
2022-12-08T03:34:17.197Z,9.97
2022-12-08T03:36:45.018Z,10.43
2022-12-08T03:39:11.716Z,9.47
2022-12-08T03:41:38.306Z,11.03
2022-12-08T03:44:05.127Z,8.47
2022-12-08T03:46:31.866Z,8.03
2022-12-08T03:48:58.544Z,11.13
2022-12-08T03:51:25.577Z,11.17
2022-12-08T03:53:52.140Z,9.50
2022-12-08T03:56:23.919Z,10.20
2022-12-08T03:58:51.142Z,12.07
2022-12-08T04:01:17.760Z,12.50
2022-12-08T04:03:44.374Z,13.70
2022-12-08T04:06:11.167Z,15.50
2022-12-08T04:08:37.899Z,15.47
2022-12-08T04:11:06.452Z,14.07
2022-12-08T04:13:37.500Z,15.03
2022-12-08T04:16:05.283Z,14.03
2022-12-08T04:18:32.831Z,16.90
2022-12-08T04:20:59.520Z,17.63
2022-12-08T04:23:26.257Z,16.20
2022-12-08T04:25:54.433Z,14.00
2022-12-08T04:28:21.714Z,15.33
2022-12-08T04:30:49.441Z,14.83
2022-12-08T04:33:16.404Z,10.77
2022-12-08T04:35:43.063Z,15.17
2022-12-08T04:38:09.906Z,11.83
2022-12-08T04:40:36.713Z,11.30
2022-12-08T04:43:03.460Z,10.27
2022-12-08T04:45:30.279Z,10.63
2022-12-08T04:47:57.896Z,9.50
2022-12-08T04:50:24.499Z,9.77
2022-12-08T04:52:51.362Z,10.80
2022-12-08T04:55:18.306Z,9.27
2022-12-08T04:57:45.359Z,11.83
2022-12-08T05:00:13.600Z,10.67
2022-12-08T05:02:40.639Z,10.97
2022-12-08T05:05:07.685Z,10.60
2022-12-08T05:07:34.470Z,11.10
2022-12-08T05:10:01.392Z,10.37
2022-12-08T05:12:28.210Z,10.33
2022-12-08T05:14:54.884Z,9.17
2022-12-08T05:17:21.476Z,11.13
2022-12-08T05:19:48.129Z,9.53
2022-12-08T05:22:14.798Z,13.00
2022-12-08T05:24:47.238Z,13.70
2022-12-08T05:27:14.523Z,10.40
2022-12-08T05:29:41.151Z,11.43
2022-12-08T05:32:07.952Z,10.23
2022-12-08T05:37:22.722Z,11.27
2022-12-08T05:39:49.545Z,10.90
2022-12-08T05:42:19.349Z,11.57
2022-12-08T05:44:48.519Z,12.10
2022-12-08T05:47:15.099Z,10.90
2022-12-08T05:49:41.886Z,12.97
2022-12-08T05:52:08.819Z,10.77
2022-12-08T05:54:35.508Z,9.70
2022-12-08T05:57:02.486Z,11.23
2022-12-08T05:59:29.132Z,11.93
2022-12-08T06:01:55.856Z,10.90
2022-12-08T06:04:22.530Z,10.47
2022-12-08T06:06:50.465Z,11.87
2022-12-08T06:09:17.427Z,12.50
2022-12-08T06:11:46.399Z,10.83
2022-12-08T06:14:13.215Z,13.63
2022-12-08T06:16:40.080Z,12.57
2022-12-08T06:19:06.907Z,15.57
2022-12-08T06:21:33.634Z,13.67
2022-12-08T06:24:00.271Z,11.83
2022-12-08T06:26:26.911Z,12.97
2022-12-08T06:28:53.594Z,11.57
2022-12-08T06:31:23.020Z,11.37
2022-12-08T06:33:50.619Z,15.77
2022-12-08T06:36:20.273Z,9.23
2022-12-08T06:38:47.882Z,10.60
2022-12-08T06:41:14.930Z,10.70
2022-12-08T06:43:41.802Z,10.83
2022-12-08T06:46:11.670Z,9.80
2022-12-08T06:48:38.348Z,10.67
2022-12-08T06:51:15.075Z,9.63
2022-12-08T06:53:43.082Z,8.93
2022-12-08T06:56:11.056Z,7.17
2022-12-08T06:58:37.976Z,7.90
2022-12-08T07:01:13.263Z,8.77
2022-12-08T07:03:40.631Z,11.00
2022-12-08T07:06:07.865Z,8.93
2022-12-08T07:08:35.098Z,9.63
2022-12-08T07:11:10.726Z,6.37
2022-12-08T07:13:37.653Z,8.23
2022-12-08T07:16:12.188Z,7.03
2022-12-08T07:18:39.518Z,6.90
2022-12-08T07:21:08.497Z,6.03
2022-12-08T07:23:36.043Z,5.60
2022-12-08T07:26:04.989Z,5.13
2022-12-08T07:28:37.259Z,4.83
2022-12-08T07:31:05.337Z,6.70
2022-12-08T07:33:33.555Z,4.87
2022-12-08T07:36:02.663Z,6.57
2022-12-08T07:38:30.086Z,6.07
2022-12-08T07:40:56.850Z,6.13
2022-12-08T07:43:24.060Z,6.07
2022-12-08T07:45:51.127Z,5.70
2022-12-08T07:48:18.090Z,6.47
2022-12-08T07:50:45.445Z,5.10
2022-12-08T07:53:12.526Z,5.70
2022-12-08T07:55:43.955Z,6.13
2022-12-08T07:58:11.447Z,3.63
2022-12-08T08:00:38.239Z,4.27
2022-12-08T08:03:06.863Z,6.53
2022-12-08T08:05:33.532Z,3.13
2022-12-08T08:08:00.508Z,4.47
2022-12-08T08:10:27.372Z,3.77
2022-12-08T08:12:54.010Z,4.47
2022-12-08T08:15:21.364Z,4.33
2022-12-08T08:17:51.548Z,3.10
2022-12-08T08:20:19.154Z,3.17
2022-12-08T08:22:46.630Z,3.60
2022-12-08T08:25:14.524Z,2.97
2022-12-08T08:27:41.556Z,3.13
2022-12-08T08:30:15.216Z,4.33
2022-12-08T08:32:44.972Z,4.27
2022-12-08T08:35:11.683Z,3.37
2022-12-08T08:37:38.348Z,4.57
2022-12-08T08:40:05.900Z,2.80
2022-12-08T08:42:32.688Z,3.10
2022-12-08T08:44:59.298Z,4.73
2022-12-08T08:47:26.062Z,4.93
2022-12-08T08:49:52.762Z,2.67
2022-12-08T08:52:19.536Z,2.40
2022-12-08T08:54:46.215Z,3.37
2022-12-08T08:57:12.834Z,3.73
2022-12-08T08:59:39.460Z,1.77
2022-12-08T09:02:06.578Z,2.83
2022-12-08T09:04:33.390Z,2.10
2022-12-08T09:07:00.371Z,2.37
2022-12-08T09:09:26.940Z,2.60
2022-12-08T09:11:55.196Z,3.20
2022-12-08T09:14:23.051Z,2.33
2022-12-08T09:16:50.019Z,4.60
2022-12-08T09:19:16.681Z,2.73
2022-12-08T09:21:43.535Z,1.80
2022-12-08T09:24:15.568Z,2.50
2022-12-08T09:26:43.991Z,2.40
2022-12-08T09:29:11.695Z,3.03
2022-12-08T09:31:38.541Z,2.97
2022-12-08T09:34:05.659Z,2.83
2022-12-08T09:36:32.675Z,3.20
2022-12-08T09:38:59.312Z,2.80
2022-12-08T09:41:50.086Z,3.17
2022-12-08T09:44:38.551Z,3.43
2022-12-08T09:47:35.483Z,2.10
2022-12-08T09:50:22.231Z,2.13
2022-12-08T09:53:04.869Z,1.70
2022-12-08T09:55:51.190Z,2.03
2022-12-08T09:58:34.490Z,2.33
2022-12-08T10:01:01.418Z,3.17
2022-12-08T10:03:30.364Z,2.77
2022-12-08T10:06:21.225Z,2.93
2022-12-08T10:09:22.662Z,2.00
2022-12-08T10:11:57.463Z,2.73
2022-12-08T10:14:54.959Z,3.30
2022-12-08T10:17:35.447Z,2.20
2022-12-08T10:20:14.366Z,2.43
2022-12-08T10:22:44.764Z,2.70
2022-12-08T10:25:16.386Z,2.37
2022-12-08T10:27:42.974Z,3.53
2022-12-08T10:30:14.281Z,2.10
2022-12-08T10:32:45.824Z,2.63
2022-12-08T10:35:15.148Z,2.90
2022-12-08T10:37:41.798Z,1.63
2022-12-08T10:40:17.312Z,2.67
2022-12-08T10:42:48.775Z,3.50
2022-12-08T10:45:21.355Z,2.73
2022-12-08T10:47:59.085Z,2.93
2022-12-08T10:50:30.231Z,3.70
2022-12-08T10:53:11.035Z,4.40
2022-12-08T10:55:52.151Z,5.37
2022-12-08T10:58:40.451Z,3.57
2022-12-08T11:01:22.698Z,5.50
2022-12-08T11:03:52.072Z,4.23
2022-12-08T11:06:30.762Z,4.03
2022-12-08T11:09:21.731Z,3.97
2022-12-08T11:11:51.569Z,3.92
2022-12-08T11:14:25.586Z,2.83
2022-12-08T11:17:03.399Z,4.40
2022-12-08T11:19:30.033Z,2.95
2022-12-08T11:21:56.732Z,4.10
2022-12-08T11:24:29.267Z,2.97
2022-12-08T11:27:04.152Z,4.05
2022-12-08T11:29:32.718Z,2.20
2022-12-08T11:32:07.925Z,1.92
2022-12-08T11:34:41.539Z,2.25
2022-12-08T11:37:23.780Z,2.10
2022-12-08T11:39:55.153Z,5.07
2022-12-08T11:42:26.263Z,4.95
2022-12-08T11:45:00.119Z,2.65
2022-12-08T11:47:31.502Z,2.85
2022-12-08T11:50:18.019Z,2.42
2022-12-08T11:52:49.940Z,3.05
2022-12-08T11:55:25.936Z,2.03
2022-12-08T11:57:55.066Z,3.08
2022-12-08T12:00:29.691Z,2.38
2022-12-08T12:03:09.527Z,1.35
2022-12-08T12:06:08.703Z,1.55
2022-12-08T12:09:07.077Z,2.65
2022-12-08T12:12:25.943Z,1.13
2022-12-08T12:15:23.555Z,1.85
2022-12-08T12:18:05.039Z,1.17
2022-12-08T12:20:36.213Z,1.93
2022-12-08T12:23:06.662Z,3.50
2022-12-08T12:25:35.393Z,2.13
2022-12-08T12:28:06.962Z,2.75
2022-12-08T12:30:58.581Z,1.67
2022-12-08T12:33:25.975Z,1.20
2022-12-08T12:35:57.853Z,1.00
2022-12-08T12:39:07.704Z,2.20
2022-12-08T12:41:47.015Z,2.00
2022-12-08T12:44:13.665Z,3.10
2022-12-08T12:46:46.051Z,2.47
2022-12-08T12:49:40.654Z,1.55
2022-12-08T12:52:30.914Z,1.45
2022-12-08T12:54:57.428Z,2.15
2022-12-08T12:57:35.136Z,2.10
2022-12-08T13:00:01.702Z,2.97
2022-12-08T13:02:30.760Z,0.60
2022-12-08T13:05:18.032Z,1.40
2022-12-08T13:08:07.899Z,2.40
2022-12-08T13:10:39.613Z,2.23
2022-12-08T13:13:12.634Z,2.87
2022-12-08T13:15:47.073Z,2.80
2022-12-08T13:18:36.290Z,1.33
2022-12-08T13:21:05.224Z,2.73
2022-12-08T13:23:38.046Z,2.83
2022-12-08T13:26:19.018Z,2.13
2022-12-08T13:29:04.016Z,2.03
2022-12-08T13:31:50.480Z,2.27
2022-12-08T13:34:41.520Z,1.30
2022-12-08T13:37:11.126Z,3.97
2022-12-08T13:39:40.783Z,2.60
2022-12-08T13:42:27.112Z,6.67
2022-12-08T13:45:33.626Z,0.90
2022-12-08T13:48:31.095Z,3.13
2022-12-08T13:53:28.426Z,1.17
2022-12-08T13:55:00.714Z,1.33
2022-12-08T13:57:11.512Z,3.90
2022-12-08T13:59:44.949Z,1.63
2022-12-08T14:02:26.326Z,1.87
2022-12-08T14:05:18.020Z,1.67
2022-12-08T14:07:41.923Z,2.10
2022-12-08T14:10:15.824Z,2.50
2022-12-08T14:12:46.855Z,0.70
2022-12-08T14:15:15.572Z,0.33
2022-12-08T14:17:52.105Z,2.90
2022-12-08T14:20:28.446Z,1.53
2022-12-08T14:22:55.733Z,1.63
2022-12-08T14:25:24.005Z,1.53
2022-12-08T14:27:56.246Z,0.80
2022-12-08T14:30:33.873Z,0.50
2022-12-08T14:33:02.497Z,2.30
2022-12-08T14:35:37.115Z,1.98
2022-12-08T14:38:06.373Z,1.57
2022-12-08T14:40:35.646Z,1.07
2022-12-08T14:43:14.938Z,0.60
2022-12-08T14:45:41.497Z,2.50
2022-12-08T14:48:38.390Z,1.20
2022-12-08T14:51:16.922Z,3.27
2022-12-08T14:53:47.523Z,1.57
2022-12-08T14:56:24.662Z,2.80
2022-12-08T14:59:06.424Z,1.03
2022-12-08T15:01:34.219Z,3.57
2022-12-08T15:04:12.410Z,2.87
2022-12-08T15:07:12.697Z,1.53
2022-12-08T15:09:49.075Z,2.17
2022-12-08T15:12:15.673Z,2.73
2022-12-08T15:14:54.884Z,3.73
2022-12-08T15:17:35.909Z,3.00
2022-12-08T15:20:04.393Z,5.30
2022-12-08T15:22:31.676Z,4.83
2022-12-08T15:25:01.467Z,4.43
2022-12-08T15:27:28.061Z,7.53
2022-12-08T15:29:54.683Z,4.23
2022-12-08T15:32:23.700Z,4.67
2022-12-08T15:34:50.463Z,4.53
2022-12-08T15:37:23.543Z,5.60
2022-12-08T15:39:51.055Z,4.37
2022-12-08T15:42:18.022Z,5.77
2022-12-08T15:44:44.990Z,4.13
2022-12-08T15:47:23.479Z,4.60
2022-12-08T15:49:52.680Z,4.33
2022-12-08T15:52:24.665Z,6.43
2022-12-08T15:54:51.441Z,4.10
2022-12-08T15:58:04.465Z,3.60
2022-12-08T16:00:51.093Z,4.20
2022-12-08T16:07:19.270Z,4.33
2022-12-08T16:09:11.671Z,4.20
2022-12-08T16:12:18.254Z,6.57
2022-12-08T16:17:33.313Z,4.83
2022-12-08T16:20:00.973Z,5.90
2022-12-08T16:25:19.390Z,6.67
2022-12-08T16:30:38.610Z,5.00
2022-12-08T16:33:05.734Z,9.10
2022-12-08T16:35:32.921Z,7.47
2022-12-08T16:37:59.586Z,7.43
2022-12-08T16:40:26.303Z,8.83
2022-12-08T16:42:53.592Z,7.90
2022-12-08T16:45:26.147Z,7.60
2022-12-08T16:48:00.459Z,7.97
2022-12-08T16:50:31.473Z,8.60
2022-12-08T16:53:05.478Z,4.83
2022-12-08T16:55:33.532Z,7.20
2022-12-08T16:58:00.390Z,7.97
2022-12-08T17:00:28.830Z,8.77
2022-12-08T17:02:55.748Z,11.63
2022-12-08T17:05:24.379Z,10.20
2022-12-08T17:07:52.777Z,5.80
2022-12-08T17:10:23.523Z,11.37
2022-12-08T17:12:51.123Z,8.87
2022-12-08T17:15:21.005Z,12.70
2022-12-08T17:17:47.809Z,10.83
2022-12-08T17:20:17.235Z,11.90
2022-12-08T17:22:43.943Z,9.83
2022-12-08T17:25:11.424Z,13.57
2022-12-08T17:27:38.889Z,15.53
2022-12-08T17:30:07.292Z,14.00
2022-12-08T17:32:34.462Z,18.23
2022-12-08T17:35:01.210Z,21.70
2022-12-08T17:37:27.891Z,22.30
2022-12-08T17:39:54.807Z,42.03
2022-12-08T17:42:26.013Z,21.80
2022-12-08T17:44:53.654Z,19.07
2022-12-08T17:47:20.554Z,22.07
2022-12-08T17:49:47.240Z,21.00
2022-12-08T17:52:14.010Z,23.07
2022-12-08T17:54:41.437Z,23.03
2022-12-08T17:57:08.198Z,25.57
2022-12-08T17:59:35.103Z,24.77
2022-12-08T18:02:02.076Z,29.70
2022-12-08T18:04:29.227Z,28.60
2022-12-08T18:06:58.234Z,26.53
2022-12-08T18:09:24.978Z,24.17
2022-12-08T18:11:51.892Z,20.23
2022-12-08T18:14:18.766Z,19.87
2022-12-08T18:16:46.717Z,16.57
2022-12-08T18:19:17.530Z,12.27
2022-12-08T18:21:44.373Z,15.37
2022-12-08T18:24:22.012Z,14.50
2022-12-08T18:26:50.705Z,14.70
2022-12-08T18:29:18.953Z,16.57
2022-12-08T18:31:45.620Z,16.40
2022-12-08T18:34:12.475Z,18.63
2022-12-08T18:36:40.811Z,16.70
2022-12-08T18:39:10.953Z,19.00
2022-12-08T18:41:38.003Z,20.47
2022-12-08T18:44:04.996Z,17.50
2022-12-08T18:46:32.043Z,18.40
2022-12-08T18:48:59.412Z,22.47
2022-12-08T18:51:26.190Z,20.40
2022-12-08T18:53:52.961Z,22.63
2022-12-08T18:56:31.476Z,22.80
2022-12-08T18:59:03.522Z,25.30
2022-12-08T19:01:32.363Z,26.40
2022-12-08T19:06:47.416Z,17.97
2022-12-08T19:09:14.299Z,19.63
2022-12-08T19:11:42.365Z,29.67
2022-12-08T19:14:10.366Z,64.00
2022-12-08T19:16:37.800Z,60.53
2022-12-08T19:19:05.216Z,37.33
2022-12-08T19:21:32.568Z,44.57
2022-12-08T19:24:00.108Z,46.33
2022-12-08T19:26:28.776Z,74.73
2022-12-08T19:28:55.622Z,93.77
2022-12-08T19:31:22.422Z,116.13
2022-12-08T19:33:49.262Z,68.67
2022-12-08T19:36:18.429Z,49.07
2022-12-08T19:39:04.551Z,49.07
2022-12-08T19:41:49.839Z,71.23
2022-12-08T19:44:44.578Z,84.80
2022-12-08T19:47:11.298Z,95.23
2022-12-08T19:49:38.551Z,160.57
2022-12-08T19:52:05.902Z,97.43
2022-12-08T19:54:32.521Z,58.10
2022-12-08T19:56:59.312Z,101.47
2022-12-08T19:59:26.419Z,95.13
2022-12-08T20:01:55.833Z,94.23
2022-12-08T20:04:26.486Z,118.13
2022-12-08T20:06:55.076Z,58.27
2022-12-08T20:09:22.424Z,71.70
2022-12-08T20:11:50.717Z,60.17
2022-12-08T20:14:18.842Z,71.43
2022-12-08T20:16:46.166Z,72.03
2022-12-08T20:19:13.536Z,62.13
2022-12-08T20:21:40.731Z,60.10
2022-12-08T20:24:07.748Z,50.17
2022-12-08T20:26:34.557Z,41.80
2022-12-08T20:29:01.323Z,48.37
2022-12-08T20:31:29.544Z,47.20
2022-12-08T20:33:56.547Z,52.13
2022-12-08T20:36:23.915Z,72.57
2022-12-08T20:38:52.463Z,46.60
2022-12-08T20:41:20.361Z,48.27
2022-12-08T20:43:47.711Z,53.93
2022-12-08T20:46:16.920Z,62.30
2022-12-08T20:48:44.711Z,59.17
2022-12-08T20:51:19.884Z,46.90
2022-12-08T20:53:47.452Z,55.77
2022-12-08T20:56:20.253Z,51.80
2022-12-08T20:58:47.949Z,95.03
2022-12-08T21:01:21.151Z,66.80
2022-12-08T21:03:49.428Z,179.00
2022-12-08T21:06:19.910Z,179.13
2022-12-08T21:08:46.594Z,97.87
2022-12-08T21:11:13.362Z,60.73
2022-12-08T21:13:40.236Z,87.00
2022-12-08T21:16:09.296Z,71.23
2022-12-08T21:18:39.745Z,73.07
2022-12-08T21:21:14.750Z,92.20
2022-12-08T21:23:42.838Z,53.67
2022-12-08T21:26:21.763Z,109.37
2022-12-08T21:28:48.544Z,110.37
2022-12-08T21:31:17.828Z,133.83
2022-12-08T21:33:44.856Z,69.83
2022-12-08T21:36:18.111Z,99.40
2022-12-08T21:38:45.597Z,58.60
2022-12-08T21:41:51.016Z,50.47
2022-12-08T21:44:20.665Z,58.70
2022-12-08T21:46:47.623Z,76.50
2022-12-08T21:49:14.586Z,69.83
2022-12-08T21:51:44.106Z,60.13
2022-12-08T21:54:18.806Z,54.97
2022-12-08T21:56:47.237Z,54.37
2022-12-08T21:59:14.126Z,57.47
2022-12-08T22:01:43.267Z,56.03
2022-12-08T22:04:12.102Z,52.50
2022-12-08T22:06:38.932Z,60.60
2022-12-08T22:09:07.190Z,60.50
2022-12-08T22:11:34.070Z,57.57
2022-12-08T22:14:00.774Z,54.10
2022-12-08T22:16:27.607Z,53.87
2022-12-08T22:18:54.436Z,53.20
2022-12-08T22:21:21.186Z,54.43
2022-12-08T22:23:48.335Z,59.20
2022-12-08T22:26:15.177Z,64.07
2022-12-08T22:28:43.652Z,70.00
2022-12-08T22:31:16.811Z,75.00
2022-12-08T22:33:44.326Z,96.37
2022-12-08T22:36:18.142Z,70.87
2022-12-08T22:38:45.488Z,64.50
2022-12-08T22:41:13.373Z,52.73
2022-12-08T22:43:40.977Z,52.47
2022-12-08T22:46:15.001Z,49.20
2022-12-08T22:48:42.225Z,53.63
2022-12-08T22:51:10.186Z,46.40
2022-12-08T22:53:37.482Z,50.87
2022-12-08T22:56:05.930Z,52.33
2022-12-08T22:58:32.548Z,49.40
2022-12-08T23:00:59.158Z,46.23
2022-12-08T23:03:25.952Z,47.80
2022-12-08T23:05:52.784Z,56.97
2022-12-08T23:08:20.032Z,47.63
2022-12-08T23:10:47.776Z,41.47
2022-12-08T23:13:14.783Z,72.67
2022-12-08T23:15:41.489Z,60.80
2022-12-08T23:18:11.146Z,63.87
2022-12-08T23:20:37.820Z,57.17
2022-12-08T23:23:04.383Z,45.07
2022-12-08T23:25:31.249Z,44.13
2022-12-08T23:27:57.960Z,50.27
2022-12-08T23:30:25.000Z,41.63
2022-12-08T23:32:56.310Z,41.27
2022-12-08T23:35:23.695Z,36.90
2022-12-08T23:37:50.714Z,34.80
2022-12-08T23:40:17.675Z,38.73
2022-12-08T23:42:44.502Z,50.27
2022-12-08T23:45:11.599Z,41.90
2022-12-08T23:47:38.217Z,41.97
2022-12-08T23:50:06.678Z,39.33
2022-12-08T23:52:33.529Z,38.63
2022-12-08T23:55:00.127Z,38.77
2022-12-08T23:57:26.779Z,43.70
2022-12-08T23:59:53.524Z,40.53
